Flight Track Log - Related Links

Times and Time Zones

All times are in EDT time to prevent confusion due to time zone crossing. See the UPS238 flight status page for this flight to view local times or setup timezone preferences in your user account.


Time Position Orientation Groundspeed Altitude Reporting Facility
EDT Latitude Longitude Course Direction KTS MPH feet Rate Location/Type
Wed 03:43:50 PM 51.8790 0.2330 North 15 17  Level FlightAware ADS-B
Wed 03:44:45 PM 51.8780 0.2290 248° West 9 10 59 Level FlightAware ADS-B
Wed 03:47:00 PM 51.9602 -0.1819 288° West  Level FlightAware Approximate
Wed 03:47:39 PM 51.8750 0.2200 288° West 4 5  Level FlightAware ADS-B
Wed 03:48:44 PM 51.8780 0.2250 46° Northeast 78 90 234 Level FlightAware ADS-B
Wed 03:48:56 PM 51.8920 0.2450 41° Northeast 169 194 300 2,250 Climbing FlightAware ADS-B
Wed 03:49:08 PM 51.8970 0.2550 51° Northeast 169 194 900 3,086 Climbing FlightAware ADS-B
Wed 03:49:31 PM 51.9110 0.2750 41° Northeast 168 193 2,100 2,491 Climbing FlightAware ADS-B
Wed 03:50:01 PM 51.9290 0.2980 41° Northeast 173 199 3,100 1,886 Climbing FlightAware ADS-B
Wed 03:50:06 PM 51.9356 0.3003 41° Northeast 196 226 3,200 1,161 Climbing FlightAware UK
Wed 03:50:32 PM 51.9580 0.2870 347° North 219 252 3,700 1,421 Climbing FlightAware ADS-B
Wed 03:50:44 PM 51.9700 0.2800 340° North 231 266 4,100 2,233 Climbing FlightAware ADS-B
Wed 03:51:15 PM 52.0030 0.2590 339° North 252 290 5,300 2,441 Climbing FlightAware ADS-B
Wed 03:51:43 PM 52.0340 0.2400 339° North 264 304 6,500 2,634 Climbing FlightAware ADS-B
Wed 03:51:56 PM 52.0477 0.2237 324° Northwest 277 319 7,100 2,727 Climbing FlightAware ADS-B
Wed 03:52:05 PM 52.0542 0.2079 304° West 283 326 7,500 3,000 Climbing FlightAware ADS-B
Wed 03:52:08 PM 52.0560 0.2014 294° West 285 328 7,700 2,667 Climbing FlightAware ADS-B
Wed 03:52:14 PM 52.0580 0.1901 286° West 287 330 7,900 2,400 Climbing FlightAware ADS-B
Wed 03:52:18 PM 52.0586 0.1813 276° West 290 334 8,100 3,000 Climbing FlightAware ADS-B
Wed 03:52:24 PM 52.0589 0.1690 272° West 292 336 8,400 2,000 Climbing FlightAware ADS-B
Wed 03:52:39 PM 52.0587 0.1347 269° West 295 339 8,800 1,000 Climbing FlightAware ADS-B
Wed 03:52:54 PM 52.0590 0.1011 271° West 295 339 8,900 581 Climbing FlightAware ADS-B
Wed 03:53:10 PM 52.0594 0.0656 271° West 296 341 9,100 1,455 Climbing FlightAware ADS-B
Wed 03:53:27 PM 52.0596 0.0291 271° West 299 344 9,700 1,500 Climbing FlightAware ADS-B
Wed 03:53:42 PM 52.0598 -0.0065 271° West 303 349 9,900 894 Climbing FlightAware ADS-B
Wed 03:54:14 PM 52.0604 -0.0777 271° West 306 352 10,400 1,161 Climbing FlightAware ADS-B
Wed 03:54:44 PM 52.0611 -0.1506 271° West 336 387 11,100 1,333 Climbing FlightAware ADS-B
Wed 03:54:59 PM 52.0613 -0.1890 271° West 353 406 11,400 1,429 Climbing FlightAware ADS-B
Wed 03:55:05 PM 52.0603 -0.2051 264° West 360 414 11,600 1,500 Climbing FlightAware ADS-B
Wed 03:55:11 PM 52.0580 -0.2208 257° West 366 421 11,700 1,538 Climbing FlightAware ADS-B
Wed 03:55:44 PM 52.0384 -0.3120 251° West 396 456 12,600 1,969 Climbing FlightAware ADS-B
Wed 03:56:15 PM 52.0200 -0.4011 251° West 408 470 13,800 2,361 Climbing FlightAware ADS-B
Wed 03:56:45 PM 52.0017 -0.4899 252° West 418 481 15,000 2,066 Climbing FlightAware ADS-B
Wed 03:57:16 PM 51.9825 -0.5817 251° West 428 493 15,900 1,364 Climbing FlightAware ADS-B
Wed 03:57:29 PM 51.9739 -0.6210 250° West 428 493 16,000 300 Climbing FlightAware ADS-B
Wed 03:57:36 PM 51.9683 -0.6417 246° West 429 494 16,000 800 Level FlightAware ADS-B
Wed 03:57:44 PM 51.9603 -0.6645 240° Southwest 431 496 16,200 2,143 Climbing FlightAware ADS-B
Wed 03:57:50 PM 51.9532 -0.6809 235° Southwest 432 497 16,500 2,595 Climbing FlightAware ADS-B
Wed 03:58:21 PM 51.9154 -0.7582 232° Southwest 438 504 17,800 2,459 Climbing FlightAware ADS-B
Wed 03:58:51 PM 51.8775 -0.8371 232° Southwest 444 511 19,000 2,262 Climbing FlightAware ADS-B
Wed 03:59:22 PM 51.8383 -0.9188 232° Southwest 450 518 20,100 1,869 Climbing FlightAware ADS-B
Wed 03:59:52 PM 51.7996 -0.9990 232° Southwest 458 527 20,900 900 Climbing FlightAware ADS-B
Wed 04:00:22 PM 51.7596 -1.0814 232° Southwest 461 531 21,000 98 Climbing FlightAware ADS-B
Wed 04:00:53 PM 51.7195 -1.1639 232° Southwest 457 526 21,000  Level FlightAware ADS-B
Wed 04:01:21 PM 51.6834 -1.2392 232° Southwest 456 525 21,000  Level FlightAware ADS-B
Wed 04:01:26 PM 51.6774 -1.2538 236° Southwest 455 524 21,000  Level FlightAware ADS-B
Wed 04:01:37 PM 51.6671 -1.2845 242° Southwest 454 522 21,000  Level FlightAware ADS-B
Wed 04:01:45 PM 51.6608 -1.3099 248° West 455 524 21,000  Level FlightAware ADS-B
Wed 04:01:48 PM 51.6586 -1.3206 252° West 455 524 21,000  Level FlightAware ADS-B
Wed 04:01:57 PM 51.6539 -1.3502 256° West 455 524 21,000  Level FlightAware ADS-B
Wed 04:02:08 PM 51.6508 -1.3867 262° West 454 522 21,000  Level FlightAware ADS-B
Wed 04:02:13 PM 51.6503 -1.4045 267° West 454 522 21,000  Level FlightAware ADS-B
Wed 04:02:23 PM 51.6510 -1.4373 272° West 454 522 21,000  Level FlightAware ADS-B
Wed 04:02:31 PM 51.6531 -1.4627 278° West 453 521 21,000  Level FlightAware ADS-B
Wed 04:02:41 PM 51.6581 -1.4968 283° West 453 521 21,000 585 Level FlightAware ADS-B
Wed 04:03:12 PM 51.6769 -1.5958 287° West 455 524 21,400 1,258 Climbing FlightAware ADS-B
Wed 04:03:43 PM 51.6958 -1.6959 287° West 462 532 22,300 1,869 Climbing FlightAware ADS-B
Wed 04:04:13 PM 51.7146 -1.7962 287° West 468 539 23,300 1,800 Climbing FlightAware ADS-B
Wed 04:04:43 PM 51.7336 -1.8968 287° West 475 547 24,100 1,770 Climbing FlightAware ADS-B
Wed 04:05:14 PM 51.7535 -2.0037 287° West 481 554 25,100 1,810 Climbing FlightAware ADS-B
Wed 04:05:46 PM 51.7740 -2.1130 287° West 485 558 26,000 2,000 Climbing FlightAware ADS-B
Wed 04:06:08 PM 51.7874 -2.1906 286° West 482 555 26,900 2,377 Climbing FlightAware ADS-B
Wed 04:06:39 PM 51.8026 -2.2950 283° West 477 549 28,100 2,164 Climbing FlightAware ADS-B
Wed 04:07:09 PM 51.8179 -2.3994 283° West 474 545 29,100 2,000 Climbing FlightAware ADS-B
Wed 04:07:39 PM 51.8335 -2.5039 284° West 471 542 30,100 1,869 Climbing FlightAware ADS-B
Wed 04:08:10 PM 51.8487 -2.6072 283° West 468 539 31,000 1,645 Climbing FlightAware ADS-B
Wed 04:08:41 PM 51.8633 -2.7108 283° West 464 534 31,800 984 Climbing FlightAware ADS-B
Wed 04:09:11 PM 51.8779 -2.8143 283° West 464 534 32,000 200 Climbing FlightAware ADS-B
Wed 04:09:41 PM 51.8920 -2.9149 283° West 460 529 32,000  Level FlightAware ADS-B
Wed 04:10:15 PM 51.9086 -3.0288 283° West 460 529 32,000  Level FlightAware ADS-B
Wed 04:10:49 PM 51.9250 -3.1410 283° West 461 531 32,000  Level FlightAware ADS-B
Wed 04:11:40 PM 51.9499 -3.3131 283° West 462 532 32,000  Level FlightAware UK
Wed 04:11:49 PM 51.9530 -3.3370 283° West 462 532 32,000  Level FlightAware ADS-B
Wed 04:12:20 PM 51.9680 -3.4400 283° West 464 534 32,000  Level FlightAware ADS-B
Wed 04:12:59 PM 51.9860 -3.5680 283° West 465 535 32,000  Level FlightAware ADS-B
Wed 04:13:44 PM 52.0090 -3.7330 283° West 466 536 32,000  Level FlightAware ADS-B
Wed 04:14:27 PM 52.0295 -3.8830 283° West 464 534 32,000  Level FlightAware UK
Wed 04:14:28 PM 52.0300 -3.8840 283° West 467 537 32,000  Level FlightAware ADS-B
Wed 04:14:56 PM 52.0420 -3.9790 282° West 467 537 32,000  Level FlightAware ADS-B
Wed 04:15:33 PM 52.0601 -4.1082 282° West 464 534 32,000  Level FlightAware UK
Wed 04:16:05 PM 52.0670 -4.1610 282° West 466 536 32,000  Level FlightAware ADS-B
Wed 04:16:09 PM 52.0764 -4.2305 282° West 462 532 32,000  Level FlightAware UK
Wed 04:16:39 PM 52.0901 -4.3331 282° West 462 532 32,000  Level FlightAware UK
Wed 04:16:50 PM 52.0950 -4.3690 282° West 466 536 32,000  Level FlightAware ADS-B
Wed 04:17:32 PM 52.1140 -4.5120 282° West 465 535 32,000  Level FlightAware ADS-B
Wed 04:18:10 PM 52.1310 -4.6430 282° West 465 535 32,000  Level FlightAware ADS-B
Wed 04:18:51 PM 52.1490 -4.7810 282° West 465 535 32,000  Level FlightAware ADS-B
Wed 04:19:32 PM 52.1670 -4.9230 282° West 466 536 32,000  Level FlightAware ADS-B
Wed 04:20:13 PM 52.1850 -5.0610 282° West 466 536 32,000  Level FlightAware ADS-B
Wed 04:20:45 PM 52.1986 -5.1744 282° West 460 529 32,000  Level FlightAware UK
Wed 04:20:48 PM 52.2000 -5.1830 282° West 467 537 32,000  Level FlightAware ADS-B
Wed 04:21:32 PM 52.2190 -5.3350 282° West 467 537 32,000  Level FlightAware ADS-B
Wed 04:22:10 PM 52.2350 -5.4660 281° West 466 536 32,000  Level FlightAware ADS-B
Wed 04:22:55 PM 52.2540 -5.6190 282° West 466 536 32,000  Level FlightAware ADS-B
Wed 04:23:27 PM 52.2671 -5.7321 282° West 462 532 32,000  Level FlightAware UK
Wed 04:23:36 PM 52.2710 -5.7620 282° West 466 536 32,000  Level FlightAware ADS-B
Wed 04:24:17 PM 52.2870 -5.9010 281° West 466 536 32,000  Level FlightAware ADS-B
Wed 04:24:56 PM 52.3030 -6.0390 281° West 466 536 32,000  Level FlightAware ADS-B
Wed 04:25:03 PM 52.3063 -6.0625 281° West 462 532 32,000  Level FlightAware UK
Wed 04:25:33 PM 52.3184 -6.1658 281° West 462 532 32,000  Level FlightAware UK
Wed 04:25:43 PM 52.3220 -6.2000 281° West 466 536 32,000  Level FlightAware ADS-B
Wed 04:26:23 PM 52.3380 -6.3370 281° West 465 535 32,000  Level FlightAware ADS-B
Wed 04:27:03 PM 52.3527 -6.4765 281° West 462 532 32,000  Level FlightAware UK
Wed 04:27:09 PM 52.3550 -6.4960 281° West 465 535 32,000  Level FlightAware ADS-B
Wed 04:27:49 PM 52.3700 -6.6320 280° West 464 534 32,000  Level FlightAware ADS-B
Wed 04:28:33 PM 52.3870 -6.7868 280° West 460 529 32,000  Level FlightAware UK
Wed 04:28:33 PM 52.3870 -6.7870 280° West 464 534 32,000  Level FlightAware ADS-B
Wed 04:29:03 PM 52.3985 -6.8900 280° West 460 529 32,000  Level FlightAware UK
Wed 04:29:11 PM 52.4010 -6.9160 280° West 464 534 32,000  Level FlightAware ADS-B
Wed 04:29:53 PM 52.4180 -7.0640 281° West 465 535 32,000  Level FlightAware ADS-B
Wed 04:30:38 PM 52.4343 -7.2206 281° West 460 529 32,000  Level FlightAware UK
Wed 04:30:43 PM 52.4280 -7.1620 281° West 464 534 32,000  Level FlightAware ADS-B
Wed 04:31:38 PM 52.4562 -7.4285 281° West 460 529 32,000  Level FlightAware UK
Wed 04:32:08 PM 52.4671 -7.5324 280° West 460 529 32,000  Level FlightAware UK
Wed 04:32:13 PM 52.4630 -7.4960 280° West 465 535 32,000  Level FlightAware ADS-B
Wed 04:32:55 PM 52.4770 -7.6300 280° West 465 535 32,000  Level FlightAware ADS-B
Wed 04:33:38 PM 52.4991 -7.8446 280° West 462 532 32,000  Level FlightAware UK
Wed 04:33:43 PM 52.5010 -7.8590 280° West 465 535 32,000  Level FlightAware ADS-B
Wed 04:34:23 PM 52.5140 -7.9930 279° West 463 533 32,000  Level FlightAware ADS-B
Wed 04:35:06 PM 52.5290 -8.1430 279° West 463 533 32,000  Level FlightAware ADS-B
Wed 04:35:08 PM 52.5304 -8.1573 279° West 460 529 32,000  Level FlightAware UK
Wed 04:35:38 PM 52.5407 -8.2615 279° West 460 529 32,000  Level FlightAware UK
Wed 04:35:51 PM 52.5440 -8.2990 279° West 463 533 32,000  Level FlightAware ADS-B
Wed 04:36:26 PM 52.5560 -8.4220 279° West 463 533 32,000  Level FlightAware ADS-B
Wed 04:37:11 PM 52.5710 -8.5770 279° West 463 533 32,000  Level FlightAware ADS-B
Wed 04:37:14 PM 52.5728 -8.5946 279° West 462 532 32,000  Level FlightAware UK
Wed 04:37:44 PM 52.5826 -8.6991 279° West 460 529 32,000  Level FlightAware UK
Wed 04:37:51 PM 52.5840 -8.7180 279° West 463 533 32,000  Level FlightAware ADS-B
Wed 04:38:31 PM 52.5970 -8.8560 279° West 464 534 32,000  Level FlightAware ADS-B
Wed 04:39:11 PM 52.6100 -8.9960 279° West 464 534 32,000  Level FlightAware ADS-B
Wed 04:39:51 PM 52.6220 -9.1350 278° West 464 534 32,000  Level FlightAware ADS-B
Wed 04:40:37 PM 52.6360 -9.2900 279° West 463 533 32,000  Level FlightAware ADS-B
Wed 04:41:17 PM 52.6490 -9.4360 278° West 463 533 32,000  Level FlightAware ADS-B
Wed 04:41:57 PM 52.6610 -9.5720 278° West 463 533 32,000  Level FlightAware ADS-B
Wed 04:42:33 PM 52.6710 -9.6970 278° West 463 533 32,000  Level FlightAware ADS-B
Wed 04:43:17 PM 52.6850 -9.8520 279° West 463 533 32,000  Level FlightAware ADS-B
Wed 04:43:57 PM 52.6960 -9.9930 277° West 461 531 32,000  Level FlightAware ADS-B
Wed 04:44:42 PM 52.7090 -10.1490 278° West 462 532 32,000  Level FlightAware ADS-B
Wed 04:47:00 PM 52.7834 -10.5818 286° West  Level Estimated
Wed 04:47:22 PM 52.7490 -10.6570 286° West 460 529 32,000  Level FlightAware ADS-B
Wed 04:48:07 PM 52.7650 -10.8660 277° West 460 529 32,000  Level FlightAware ADS-B
Wed 04:48:48 PM 52.7750 -11.0080 277° West 461 531 32,000  Level FlightAware ADS-B
Wed 04:49:40 PM 52.7870 -11.1750 277° West 461 531 32,000  Level FlightAware ADS-B
Wed 04:50:28 PM 52.8000 -11.3580 277° West 461 531 32,000  Level FlightAware ADS-B
Wed 04:51:21 PM 52.8130 -11.5380 277° West 461 531 32,000  Level FlightAware ADS-B
Wed 04:52:03 PM 52.8230 -11.6900 276° West 459 528 32,000  Level FlightAware ADS-B
Wed 04:52:43 PM 52.8320 -11.8210 277° West 459 528 32,000  Level FlightAware ADS-B
Wed 04:53:23 PM 52.8420 -11.9650 277° West 459 528 32,000  Level FlightAware ADS-B
Wed 04:54:03 PM 52.8510 -12.1040 276° West 459 528 32,000  Level FlightAware ADS-B
Wed 04:54:43 PM 52.8600 -12.2470 276° West 459 528 32,000  Level FlightAware ADS-B
Wed 04:55:49 PM 52.8730 -12.4670 276° West 460 529 32,000  Level FlightAware ADS-B
Wed 04:56:23 PM 52.8810 -12.5890 276° West 461 531 32,000  Level FlightAware ADS-B
Wed 04:57:38 PM 52.8960 -12.8580 275° West 461 531 32,000  Level FlightAware ADS-B
Wed 04:58:24 PM 52.9030 -13.0020 275° West 461 531 32,000  Level FlightAware ADS-B
Wed 04:59:00 PM 52.9080 -13.1100 274° West 461 531 32,000  Level FlightAware ADS-B
Wed 05:01:00 PM 52.9642 -13.4917 284° West  Level Estimated
Wed 05:02:00 PM 52.9919 -13.6829 284° West  Level Estimated
Wed 05:03:00 PM 53.0192 -13.8744 283° West  Level Estimated
Wed 05:04:00 PM 53.0463 -14.0661 283° West  Level Estimated
Wed 05:05:00 PM 53.0730 -14.2580 283° West  Level Estimated
Wed 05:06:00 PM 53.0994 -14.4502 283° West  Level Estimated
Wed 05:07:00 PM 53.1255 -14.6426 283° West  Level Estimated
Wed 05:08:00 PM 53.1513 -14.8352 283° West  Level Estimated
Wed 05:09:00 PM 53.1768 -15.0281 283° West  Level Estimated
Wed 05:10:00 PM 53.2020 -15.2212 282° West  Level Estimated
Wed 05:11:00 PM 53.2269 -15.4145 282° West  Level Estimated
Wed 05:12:00 PM 53.2514 -15.6081 282° West  Level Estimated
Wed 05:13:00 PM 53.2757 -15.8019 282° West  Level Estimated
Wed 05:14:00 PM 53.2996 -15.9958 282° West  Level Estimated
Wed 05:15:00 PM 53.3232 -16.1901 282° West  Level Estimated
Wed 05:16:00 PM 53.3465 -16.3845 281° West  Level Estimated
Wed 05:17:00 PM 53.3695 -16.5791 281° West  Level Estimated
Wed 05:18:00 PM 53.3921 -16.7740 281° West  Level Estimated
Wed 05:19:00 PM 53.4145 -16.9690 281° West  Level Estimated
Wed 05:20:00 PM 53.4365 -17.1642 281° West  Level Estimated
Wed 05:21:00 PM 53.4582 -17.3597 281° West  Level Estimated
Wed 05:22:00 PM 53.4796 -17.5553 280° West  Level Estimated
Wed 05:23:00 PM 53.5007 -17.7512 280° West  Level Estimated
Wed 05:24:00 PM 53.5214 -17.9472 280° West  Level Estimated
Wed 05:25:00 PM 53.5419 -18.1435 280° West  Level Estimated
Wed 05:26:00 PM 53.5620 -18.3399 280° West  Level Estimated
Wed 05:27:00 PM 53.5817 -18.5365 280° West  Level Estimated
Wed 05:28:00 PM 53.6012 -18.7333 280° West  Level Estimated
Wed 05:29:00 PM 53.6203 -18.9303 279° West  Level Estimated
Wed 05:30:00 PM 53.6392 -19.1274 279° West  Level Estimated
Wed 05:31:00 PM 53.6576 -19.3247 279° West  Level Estimated
Wed 05:31:27 PM 53.0000 -20.0000 274° West 450 518 32,000  Level ETMS Enhanced Traffic Management System
Wed 05:32:00 PM 53.6758 -19.5222 279° West  Level Estimated
Wed 05:33:00 PM 53.6937 -19.7199 279° West  Level Estimated
Wed 05:34:00 PM 53.7112 -19.9177 279° West  Level Estimated
Wed 05:35:00 PM 53.7284 -20.1157 278° West  Level Estimated
Wed 05:36:00 PM 53.7452 -20.3138 278° West  Level Estimated
Wed 05:37:00 PM 53.0459 -21.2473 273° West 450 518 32,000  Level FlightAware Transoceanic
Wed 05:38:00 PM 53.0522 -21.4555 273° West 450 518 32,000  Level FlightAware Transoceanic
Wed 05:39:00 PM 53.0583 -21.6637 273° West 450 518 32,000  Level FlightAware Transoceanic
Wed 05:40:00 PM 53.0639 -21.8719 273° West 450 518 32,000  Level FlightAware Transoceanic
Wed 05:41:00 PM 53.0692 -22.0802 272° West 450 518 32,000  Level FlightAware Transoceanic
Wed 05:42:00 PM 53.0741 -22.2886 272° West 450 518 32,000  Level FlightAware Transoceanic
Wed 05:43:00 PM 53.0787 -22.4970 272° West 450 518 32,000  Level FlightAware Transoceanic
Wed 05:44:00 PM 53.0829 -22.7054 272° West 450 518 32,000  Level FlightAware Transoceanic
Wed 05:45:00 PM 53.0867 -22.9139 272° West 450 518 32,000  Level FlightAware Transoceanic
Wed 05:46:00 PM 53.0902 -23.1224 272° West 450 518 32,000  Level FlightAware Transoceanic
Wed 05:47:00 PM 53.0933 -23.3309 271° West 450 518 32,000  Level FlightAware Transoceanic
Wed 05:48:00 PM 53.0960 -23.5395 271° West 450 518 32,000  Level FlightAware Transoceanic
Wed 05:49:00 PM 53.0984 -23.7481 271° West 450 518 32,000  Level FlightAware Transoceanic
Wed 05:50:00 PM 53.1004 -23.9567 271° West 450 518 32,000  Level FlightAware Transoceanic
Wed 05:51:00 PM 53.1020 -24.1653 271° West 450 518 32,000  Level FlightAware Transoceanic
Wed 05:52:00 PM 53.1033 -24.3740 271° West 450 518 32,000  Level FlightAware Transoceanic
Wed 05:53:00 PM 53.1042 -24.5827 270° West 450 518 32,000  Level FlightAware Transoceanic
Wed 05:54:00 PM 53.1048 -24.7913 270° West 450 518 32,000  Level FlightAware Transoceanic
Wed 05:55:00 PM 53.1049 -25.0000 270° West 450 518 32,000  Level FlightAware Transoceanic
Wed 05:56:00 PM 53.1048 -25.2087 270° West 450 518 32,000  Level FlightAware Transoceanic
Wed 05:57:00 PM 53.1042 -25.4173 270° West 450 518 32,000  Level FlightAware Transoceanic
Wed 05:58:00 PM 53.1033 -25.6260 269° West 450 518 32,000  Level FlightAware Transoceanic
Wed 05:59:00 PM 53.1020 -25.8347 269° West 450 518 32,000  Level FlightAware Transoceanic
Wed 06:00:00 PM 53.1004 -26.0433 269° West 450 518 32,000  Level FlightAware Transoceanic
Wed 06:01:00 PM 53.0984 -26.2519 269° West 450 518 32,000  Level FlightAware Transoceanic
Wed 06:02:00 PM 53.0960 -26.4605 269° West 450 518 32,000  Level FlightAware Transoceanic
Wed 06:03:00 PM 53.0933 -26.6691 269° West 450 518 32,000  Level FlightAware Transoceanic
Wed 06:04:00 PM 53.0902 -26.8776 268° West 450 518 32,000  Level FlightAware Transoceanic
Wed 06:05:00 PM 53.0867 -27.0861 268° West 450 518 32,000  Level FlightAware Transoceanic
Wed 06:06:00 PM 53.0829 -27.2946 268° West 450 518 32,000  Level FlightAware Transoceanic
Wed 06:07:00 PM 53.0787 -27.5030 268° West 450 518 32,000  Level FlightAware Transoceanic
Wed 06:08:00 PM 53.0741 -27.7114 268° West 450 518 32,000  Level FlightAware Transoceanic
Wed 06:09:00 PM 53.0692 -27.9198 268° West 450 518 32,000  Level FlightAware Transoceanic
Wed 06:10:00 PM 53.0639 -28.1281 267° West 450 518 32,000  Level FlightAware Transoceanic
Wed 06:11:00 PM 53.0583 -28.3363 267° West 450 518 32,000  Level FlightAware Transoceanic
Wed 06:12:00 PM 53.0522 -28.5445 267° West 450 518 32,000  Level FlightAware Transoceanic
Wed 06:13:00 PM 53.0459 -28.7527 267° West 450 518 32,000  Level FlightAware Transoceanic
Wed 06:14:00 PM 53.0391 -28.9607 267° West 450 518 32,000  Level FlightAware Transoceanic
Wed 06:15:00 PM 53.0320 -29.1687 267° West 450 518 32,000  Level FlightAware Transoceanic
Wed 06:16:00 PM 53.0246 -29.3767 267° West 450 518 32,000  Level FlightAware Transoceanic
Wed 06:17:00 PM 53.0167 -29.5845 266° West 450 518 32,000  Level FlightAware Transoceanic
Wed 06:18:00 PM 53.0085 -29.7923 266° West 450 518 32,000 18 Level FlightAware Transoceanic
Wed 06:19:00 PM 53.0121 -29.9890 272° West  Level Estimated
Wed 06:20:00 PM 53.0153 -30.1858 272° West  Level Estimated
Wed 06:21:00 PM 53.0181 -30.3825 271° West  Level Estimated
Wed 06:22:00 PM 53.0207 -30.5793 271° West  Level Estimated
Wed 06:23:00 PM 53.0229 -30.7761 271° West  Level Estimated
Wed 06:24:00 PM 53.0248 -30.9730 271° West  Level Estimated
Wed 06:25:00 PM 53.0263 -31.1698 271° West  Level Estimated
Wed 06:26:00 PM 53.0276 -31.3667 271° West  Level Estimated
Wed 06:27:00 PM 53.0285 -31.5636 271° West  Level Estimated
Wed 06:28:00 PM 53.0291 -31.7605 270° West  Level Estimated
Wed 06:29:00 PM 53.0294 -31.9574 270° West  Level Estimated
Wed 06:30:00 PM 53.0293 -32.1543 270° West  Level Estimated
Wed 06:31:00 PM 53.0289 -32.3511 270° West  Level Estimated
Wed 06:32:00 PM 53.0282 -32.5480 270° West  Level Estimated
Wed 06:33:00 PM 53.0272 -32.7449 270° West  Level Estimated
Wed 06:34:00 PM 53.0258 -32.9417 269° West  Level Estimated
Wed 06:35:00 PM 53.0242 -33.1386 269° West  Level Estimated
Wed 06:36:00 PM 53.0221 -33.3354 269° West  Level Estimated
Wed 06:37:00 PM 53.0198 -33.5322 269° West  Level Estimated
Wed 06:38:00 PM 53.0172 -33.7290 269° West  Level Estimated
Wed 06:39:00 PM 53.0142 -33.9258 269° West  Level Estimated
Wed 06:40:00 PM 53.0109 -34.1225 268° West  Level Estimated
Wed 06:41:00 PM 53.0072 -34.3192 268° West  Level Estimated
Wed 06:42:00 PM 53.0033 -34.5159 268° West  Level Estimated
Wed 06:43:00 PM 52.9990 -34.7125 268° West  Level Estimated
Wed 06:44:00 PM 52.9944 -34.9091 268° West  Level Estimated
Wed 06:45:00 PM 52.9895 -35.1057 268° West  Level Estimated
Wed 06:46:00 PM 52.9842 -35.3022 268° West  Level Estimated
Wed 06:47:00 PM 52.9786 -35.4986 267° West  Level Estimated
Wed 06:48:00 PM 52.9727 -35.6950 267° West  Level Estimated
Wed 06:49:00 PM 52.9665 -35.8913 267° West  Level Estimated
Wed 06:50:00 PM 52.9600 -36.0876 267° West  Level Estimated
Wed 06:51:00 PM 52.9531 -36.2839 267° West  Level Estimated
Wed 06:52:00 PM 52.9459 -36.4800 267° West  Level Estimated
Wed 06:53:00 PM 52.9384 -36.6761 266° West  Level Estimated
Wed 06:54:00 PM 52.9305 -36.8722 266° West  Level Estimated
Wed 06:55:00 PM 52.9224 -37.0681 266° West  Level Estimated
Wed 06:56:00 PM 52.9139 -37.2640 266° West  Level Estimated
Wed 06:57:00 PM 52.9051 -37.4598 266° West  Level Estimated
Wed 06:58:00 PM 52.8960 -37.6555 266° West  Level Estimated
Wed 06:59:00 PM 52.8865 -37.8511 266° West  Level Estimated
Wed 07:00:00 PM 52.8768 -38.0467 265° West  Level Estimated
Wed 07:01:00 PM 52.8667 -38.2421 265° West  Level Estimated
Wed 07:02:00 PM 52.8563 -38.4375 265° West  Level Estimated
Wed 07:03:00 PM 52.8455 -38.6328 265° West  Level Estimated
Wed 07:04:00 PM 52.8345 -38.8280 265° West  Level Estimated
Wed 07:05:00 PM 52.8231 -39.0230 265° West  Level Estimated
Wed 07:06:00 PM 52.8114 -39.2180 264° West  Level Estimated
Wed 07:07:00 PM 52.7994 -39.4129 264° West  Level Estimated
Wed 07:08:00 PM 52.7871 -39.6076 264° West  Level Estimated
Wed 07:09:00 PM 52.7744 -39.8022 264° West  Level Estimated
Wed 07:10:00 PM 52.7615 -39.9968 264° West  Level Estimated
Wed 07:11:00 PM 52.7482 -40.1912 264° West  Level Estimated
Wed 07:12:00 PM 52.7346 -40.3855 263° West  Level Estimated
Wed 07:13:00 PM 52.7207 -40.5797 263° West  Level Estimated
Wed 07:14:00 PM 52.7064 -40.7737 263° West  Level Estimated
Wed 07:15:00 PM 52.6919 -40.9676 263° West  Level Estimated
Wed 07:16:00 PM 52.6770 -41.1614 263° West  Level Estimated
Wed 07:17:00 PM 52.6618 -41.3550 263° West  Level Estimated
Wed 07:18:00 PM 52.6463 -41.5485 263° West  Level Estimated
Wed 07:19:00 PM 52.6305 -41.7419 262° West  Level Estimated
Wed 07:20:00 PM 52.6144 -41.9352 262° West  Level Estimated
Wed 07:21:00 PM 52.5979 -42.1282 262° West  Level Estimated
Wed 07:22:00 PM 52.5812 -42.3212 262° West  Level Estimated
Wed 07:23:00 PM 52.5641 -42.5140 262° West  Level Estimated
Wed 07:24:00 PM 52.5467 -42.7066 262° West  Level Estimated
Wed 07:25:00 PM 52.5290 -42.8991 261° West  Level Estimated
Wed 07:26:00 PM 52.5110 -43.0914 261° West  Level Estimated
Wed 07:27:00 PM 52.4927 -43.2836 261° West  Level Estimated
Wed 07:28:00 PM 52.4741 -43.4756 261° West  Level Estimated
Wed 07:29:00 PM 52.4551 -43.6675 261° West  Level Estimated
Wed 07:30:00 PM 52.4359 -43.8592 261° West  Level Estimated
Wed 07:31:00 PM 52.4163 -44.0507 261° West  Level Estimated
Wed 07:32:00 PM 52.3964 -44.2420 260° West  Level Estimated
Wed 07:33:00 PM 52.3763 -44.4332 260° West  Level Estimated
Wed 07:34:00 PM 52.3558 -44.6242 260° West  Level Estimated
Wed 07:35:00 PM 52.3350 -44.8150 260° West  Level Estimated
Wed 07:36:00 PM 52.3139 -45.0056 260° West  Level Estimated
Wed 07:37:00 PM 52.2925 -45.1961 260° West  Level Estimated
Wed 07:38:00 PM 52.2708 -45.3864 260° West  Level Estimated
Wed 07:39:00 PM 52.2487 -45.5764 259° West  Level Estimated
Wed 07:40:00 PM 52.2264 -45.7663 259° West  Level Estimated
Wed 07:41:00 PM 52.2038 -45.9560 259° West  Level Estimated
Wed 07:42:00 PM 52.1809 -46.1455 259° West  Level Estimated
Wed 07:43:00 PM 52.1576 -46.3348 259° West  Level Estimated
Wed 07:44:00 PM 52.1341 -46.5239 259° West  Level Estimated
Wed 07:45:00 PM 52.1102 -46.7129 258° West  Level Estimated
Wed 07:46:00 PM 52.0861 -46.9016 258° West  Level Estimated
Wed 07:47:00 PM 52.0617 -47.0901 258° West  Level Estimated
Wed 07:48:00 PM 52.0369 -47.2784 258° West  Level Estimated
Wed 07:49:00 PM 52.0119 -47.4664 258° West  Level Estimated
Wed 07:50:00 PM 51.9865 -47.6543 258° West  Level Estimated
Wed 07:51:00 PM 51.9609 -47.8420 258° West  Level Estimated
Wed 07:52:00 PM 51.9350 -48.0294 257° West  Level Estimated
Wed 07:53:00 PM 51.9087 -48.2166 257° West  Level Estimated
Wed 07:54:00 PM 51.8822 -48.4036 257° West  Level Estimated
Wed 07:55:00 PM 51.8554 -48.5904 257° West  Level Estimated
Wed 07:56:00 PM 51.8282 -48.7770 257° West  Level Estimated
Wed 07:57:00 PM 51.8008 -48.9633 257° West  Level Estimated
Wed 07:58:00 PM 51.7731 -49.1494 257° West  Level Estimated
Wed 07:59:00 PM 51.7451 -49.3353 256° West  Level Estimated
Wed 08:00:00 PM 51.7168 -49.5209 256° West  Level Estimated
Wed 08:01:00 PM 51.6882 -49.7063 256° West  Level Estimated
Wed 08:02:00 PM 51.6593 -49.8915 256° West  Level Estimated
Wed 08:03:00 PM 51.6301 -50.0764 256° West  Level Estimated
Wed 08:04:00 PM 51.6007 -50.2611 256° West  Level Estimated
Wed 08:05:00 PM 51.5709 -50.4456 256° West  Level Estimated
Wed 08:06:00 PM 51.5409 -50.6298 255° West  Level Estimated
Wed 08:07:00 PM 51.5106 -50.8138 255° West  Level Estimated
Wed 08:08:00 PM 51.4799 -50.9975 255° West  Level Estimated
Wed 08:09:00 PM 51.4490 -51.1810 255° West  Level Estimated
Wed 08:09:24 PM 49.8580 -50.6510 255° West 465 535 34,000  Level FlightAware ADS-B
Wed 08:10:00 PM 51.4179 -51.3642 255° West  Level Estimated
Wed 08:10:01 PM 49.8310 -50.7480 247° West 465 535 34,000  Level FlightAware ADS-B
Wed 08:10:44 PM 49.7840 -50.9180 247° West 474 545 34,000  Level FlightAware ADS-B
Wed 08:11:35 PM 49.7450 -51.0570 247° West 476 548 34,000  Level FlightAware ADS-B
Wed 08:12:14 PM 49.7050 -51.1990 247° West 475 547 34,000  Level FlightAware ADS-B
Wed 08:12:59 PM 49.6660 -51.3380 247° West 474 545 34,000  Level FlightAware ADS-B
Wed 08:13:34 PM 49.6350 -51.4460 246° West 474 545 34,000  Level FlightAware ADS-B
Wed 08:14:24 PM 49.5900 -51.6020 246° West 473 544 34,000  Level FlightAware ADS-B
Wed 08:15:04 PM 49.5560 -51.7220 246° West 471 542 34,000  Level FlightAware ADS-B
Wed 08:15:44 PM 49.5200 -51.8460 246° West 470 541 34,000  Level FlightAware ADS-B
Wed 08:16:19 PM 49.4890 -51.9530 246° West 470 541 34,000  Level FlightAware ADS-B
Wed 08:16:59 PM 49.4540 -52.0740 246° West 468 539 34,000  Level FlightAware ADS-B
Wed 08:17:44 PM 49.4140 -52.2100 246° West 468 539 34,000  Level FlightAware ADS-B
Wed 08:18:19 PM 49.3830 -52.3150 246° West 468 539 34,000  Level FlightAware ADS-B
Wed 08:18:59 PM 49.3480 -52.4340 246° West 469 540 34,000  Level FlightAware ADS-B
Wed 08:19:44 PM 49.3060 -52.5730 245° Southwest 468 539 34,000  Level FlightAware ADS-B
Wed 08:20:24 PM 49.2700 -52.6940 246° West 468 539 34,000  Level FlightAware ADS-B
Wed 08:21:09 PM 49.2290 -52.8300 245° Southwest 468 539 34,000  Level FlightAware ADS-B
Wed 08:21:49 PM 49.1950 -52.9440 246° West 467 537 34,000  Level FlightAware ADS-B
Wed 08:22:29 PM 49.1570 -53.0680 245° Southwest 466 536 34,000  Level FlightAware ADS-B
Wed 08:23:10 PM 49.1210 -53.1870 245° Southwest 464 534 34,000  Level FlightAware ADS-B
Wed 08:23:49 PM 49.0850 -53.3030 245° Southwest 463 533 34,000  Level FlightAware ADS-B
Wed 08:24:29 PM 49.0490 -53.4220 245° Southwest 463 533 34,000  Level FlightAware ADS-B
Wed 08:25:10 PM 49.0120 -53.5400 244° Southwest 464 534 34,000  Level FlightAware ADS-B
Wed 08:25:54 PM 48.9710 -53.6730 245° Southwest 464 534 34,000  Level FlightAware ADS-B
Wed 08:26:34 PM 48.9340 -53.7900 244° Southwest 464 534 34,000  Level FlightAware ADS-B
Wed 08:27:14 PM 48.8970 -53.9080 245° Southwest 463 533 34,000  Level FlightAware ADS-B
Wed 08:27:59 PM 48.8550 -54.0400 244° Southwest 462 532 34,000  Level FlightAware ADS-B
Wed 08:28:34 PM 48.8230 -54.1410 244° Southwest 461 531 34,000  Level FlightAware ADS-B
Wed 08:29:14 PM 48.7860 -54.2580 244° Southwest 461 531 34,000  Level FlightAware ADS-B
Wed 08:29:54 PM 48.7490 -54.3740 244° Southwest 461 531 34,000  Level FlightAware ADS-B
Wed 08:31:09 PM 48.6790 -54.5910 244° Southwest 462 532 34,000  Level FlightAware ADS-B
Wed 08:31:54 PM 48.6360 -54.7210 243° Southwest 462 532 34,000  Level FlightAware ADS-B
Wed 08:32:34 PM 48.5990 -54.8360 244° Southwest 462 532 34,000  Level FlightAware ADS-B
Wed 08:33:19 PM 48.5560 -54.9670 244° Southwest 462 532 34,000  Level FlightAware ADS-B
Wed 08:33:59 PM 48.5180 -55.0820 244° Southwest 461 531 34,000  Level FlightAware ADS-B
Wed 08:34:34 PM 48.4850 -55.1820 244° Southwest 459 528 34,000  Level FlightAware ADS-B
Wed 08:35:14 PM 48.4490 -55.2910 244° Southwest 458 527 34,000  Level FlightAware ADS-B
Wed 08:35:59 PM 48.4050 -55.4230 243° Southwest 457 526 34,000  Level FlightAware ADS-B
Wed 08:36:39 PM 48.3660 -55.5370 243° Southwest 457 526 34,000  Level FlightAware ADS-B
Wed 08:37:24 PM 48.3240 -55.6630 243° Southwest 456 525 34,000  Level FlightAware ADS-B
Wed 08:38:04 PM 48.2850 -55.7780 243° Southwest 456 525 34,000  Level FlightAware ADS-B
Wed 08:38:44 PM 48.2470 -55.8900 243° Southwest 456 525 34,000  Level FlightAware ADS-B
Wed 08:39:24 PM 48.2090 -56.0010 243° Southwest 455 524 34,000  Level FlightAware ADS-B
Wed 08:40:04 PM 48.1700 -56.1140 243° Southwest 455 524 34,000  Level FlightAware ADS-B
Wed 08:40:49 PM 48.1290 -56.2350 243° Southwest 456 525 34,000  Level FlightAware ADS-B
Wed 08:41:34 PM 48.0830 -56.3660 242° Southwest 456 525 34,000  Level FlightAware ADS-B
Wed 08:42:14 PM 48.0450 -56.4770 243° Southwest 456 525 34,000  Level FlightAware ADS-B
Wed 08:42:59 PM 48.0010 -56.6030 242° Southwest 456 525 34,000  Level FlightAware ADS-B
Wed 08:43:39 PM 47.9620 -56.7130 242° Southwest 457 526 34,000  Level FlightAware ADS-B
Wed 08:44:19 PM 47.9220 -56.8260 242° Southwest 456 525 34,000  Level FlightAware ADS-B
Wed 08:45:04 PM 47.8790 -56.9490 243° Southwest 456 525 34,000  Level FlightAware ADS-B
Wed 08:45:49 PM 47.8340 -57.0740 242° Southwest 455 524 34,000  Level FlightAware ADS-B
Wed 08:46:29 PM 47.7940 -57.1850 242° Southwest 456 525 34,000  Level FlightAware ADS-B
Wed 08:47:09 PM 47.7540 -57.2960 242° Southwest 456 525 34,000  Level FlightAware ADS-B
Wed 08:47:55 PM 47.7110 -57.4160 242° Southwest 455 524 34,000  Level FlightAware ADS-B
Wed 08:48:34 PM 47.6710 -57.5290 242° Southwest 456 525 34,000  Level FlightAware ADS-B
Wed 08:49:19 PM 47.6250 -57.6540 241° Southwest 455 524 34,000  Level FlightAware ADS-B
Wed 08:50:09 PM 47.5750 -57.7900 241° Southwest 455 524 34,000  Level FlightAware ADS-B
Wed 08:50:49 PM 47.5370 -57.8940 242° Southwest 456 525 34,000  Level FlightAware ADS-B
Wed 08:51:29 PM 47.4950 -58.0060 241° Southwest 456 525 34,000  Level FlightAware ADS-B
Wed 08:52:09 PM 47.4550 -58.1170 242° Southwest 457 526 34,000  Level FlightAware ADS-B
Wed 08:52:49 PM 47.4150 -58.2220 241° Southwest 457 526 34,000  Level FlightAware ADS-B
Wed 08:53:34 PM 47.3710 -58.3420 242° Southwest 457 526 34,000 800 Level FlightAware ADS-B
Wed 08:54:19 PM 47.3220 -58.4700 241° Southwest 453 521 35,200 1,412 Climbing FlightAware ADS-B
Wed 08:54:59 PM 47.2830 -58.5760 242° Southwest 448 516 36,000 640 Climbing FlightAware ADS-B
Wed 08:55:34 PM 47.2500 -58.6630 241° Southwest 446 513 36,000  Level FlightAware ADS-B
Wed 08:56:15 PM 47.2050 -58.7810 241° Southwest 445 512 36,000  Level FlightAware ADS-B
Wed 08:56:59 PM 47.1610 -58.8970 241° Southwest 447 514 36,000  Level FlightAware ADS-B
Wed 08:57:35 PM 47.1250 -58.9900 240° Southwest 447 514 36,000  Level FlightAware ADS-B
Wed 08:58:15 PM 47.0840 -59.0980 241° Southwest 447 514 36,000  Level FlightAware ADS-B
Wed 08:58:59 PM 47.0390 -59.2140 240° Southwest 448 516 36,000  Level FlightAware ADS-B
Wed 08:59:31 PM 47.0060 -59.2990 240° Southwest 448 516 36,000  Level FlightAware ADS-B
Wed 09:00:17 PM 46.9600 -59.4180 241° Southwest 447 514 36,000  Level FlightAware ADS-B
Wed 09:00:55 PM 46.9210 -59.5180 240° Southwest 447 514 36,000  Level FlightAware ADS-B
Wed 09:01:41 PM 46.8730 -59.6390 240° Southwest 444 511 36,000  Level FlightAware ADS-B
Wed 09:02:21 PM 46.8320 -59.7430 240° Southwest 443 510 36,000  Level FlightAware ADS-B
Wed 09:03:05 PM 46.7880 -59.8560 240° Southwest 442 509 36,000  Level FlightAware ADS-B
Wed 09:03:45 PM 46.7470 -59.9590 240° Southwest 440 506 36,000  Level FlightAware ADS-B
Wed 09:04:21 PM 46.7100 -60.0520 240° Southwest 439 505 36,000  Level FlightAware ADS-B
Wed 09:05:01 PM 46.6700 -60.1520 240° Southwest 438 504 36,000  Level FlightAware ADS-B
Wed 09:05:45 PM 46.6250 -60.2650 240° Southwest 438 504 36,000  Level FlightAware ADS-B
Wed 09:06:25 PM 46.5830 -60.3680 239° Southwest 438 504 36,000  Level FlightAware ADS-B
Wed 09:07:09 PM 46.5390 -60.4770 240° Southwest 439 505 36,000  Level FlightAware ADS-B
Wed 09:07:49 PM 46.4980 -60.5790 240° Southwest 439 505 36,000  Level FlightAware ADS-B
Wed 09:08:33 PM 46.4520 -60.6920 239° Southwest 440 506 36,000  Level FlightAware ADS-B
Wed 09:09:13 PM 46.4100 -60.7930 239° Southwest 441 507 36,000  Level FlightAware ADS-B
Wed 09:09:53 PM 46.3700 -60.8920 240° Southwest 440 506 36,000  Level FlightAware ADS-B
Wed 09:10:37 PM 46.3240 -61.0040 239° Southwest 442 509 36,000  Level FlightAware ADS-B
Wed 09:11:33 PM 46.2690 -61.1360 239° Southwest 441 507 36,000  Level FlightAware ADS-B
Wed 09:12:17 PM 46.2180 -61.2580 239° Southwest 443 510 36,000  Level FlightAware ADS-B
Wed 09:12:57 PM 46.1760 -61.3590 239° Southwest 442 509 36,000  Level FlightAware ADS-B
Wed 09:13:41 PM 46.1300 -61.4700 239° Southwest 443 510 36,000  Level FlightAware ADS-B
Wed 09:14:21 PM 46.0880 -61.5690 239° Southwest 442 509 36,000  Level FlightAware ADS-B
Wed 09:15:03 PM 46.0430 -61.6740 238° Southwest 443 510 36,000  Level FlightAware ADS-B
Wed 09:15:42 PM 46.0070 -61.7570 238° Southwest 443 510 36,000  Level FlightAware ADS-B
Wed 09:16:19 PM 45.9630 -61.8640 239° Southwest 443 510 36,000  Level FlightAware ADS-B
Wed 09:16:58 PM 45.9220 -61.9600 238° Southwest 444 511 36,000  Level FlightAware ADS-B
Wed 09:17:47 PM 45.8760 -62.0650 238° Southwest 444 511 36,000  Level FlightAware ADS-B
Wed 09:18:23 PM 45.8430 -62.1410 238° Southwest 444 511 36,000  Level FlightAware ADS-B
Wed 09:19:11 PM 45.7990 -62.2430 238° Southwest 444 511 36,000  Level FlightAware ADS-B
Wed 09:19:47 PM 45.7650 -62.3200 238° Southwest 444 511 36,000  Level FlightAware ADS-B
Wed 09:20:36 PM 45.7200 -62.4230 238° Southwest 444 511 36,000  Level FlightAware ADS-B
Wed 09:21:12 PM 45.6870 -62.5000 238° Southwest 444 511 36,000  Level FlightAware ADS-B
Wed 09:21:49 PM 45.6530 -62.5780 238° Southwest 444 511 36,000  Level FlightAware ADS-B
Wed 09:22:38 PM 45.6070 -62.6820 238° Southwest 444 511 36,000  Level FlightAware ADS-B
Wed 09:23:14 PM 45.5740 -62.7580 238° Southwest 444 511 36,000  Level FlightAware ADS-B
Wed 09:24:03 PM 45.5290 -62.8620 238° Southwest 444 511 36,000  Level FlightAware ADS-B
Wed 09:24:44 PM 45.4120 -63.1290 238° Southwest 449 517 36,000  Level FlightAware ADS-B
Wed 09:25:19 PM 45.3720 -63.2190 238° Southwest 450 518 36,000  Level FlightAware ADS-B
Wed 09:25:59 PM 45.3270 -63.3190 237° Southwest 449 517 36,000  Level FlightAware ADS-B
Wed 09:26:39 PM 45.2820 -63.4180 237° Southwest 449 517 36,000  Level FlightAware ADS-B
Wed 09:27:24 PM 45.2320 -63.5290 237° Southwest 449 517 36,000  Level FlightAware ADS-B
Wed 09:28:04 PM 45.1880 -63.6270 238° Southwest 449 517 36,000  Level FlightAware ADS-B
Wed 09:28:49 PM 45.1380 -63.7380 237° Southwest 449 517 36,000  Level FlightAware ADS-B
Wed 09:29:29 PM 45.0960 -63.8290 237° Southwest 449 517 36,000  Level FlightAware ADS-B
Wed 09:30:11 PM 45.0460 -63.9380 237° Southwest 447 514 36,000  Level FlightAware ADS-B
Wed 09:30:48 PM 45.0030 -64.0310 237° Southwest 447 514 36,000  Level FlightAware ADS-B
Wed 09:31:28 PM 44.9590 -64.1280 237° Southwest 447 514 36,000  Level FlightAware ADS-B
Wed 09:32:08 PM 44.9130 -64.2280 237° Southwest 447 514 36,000  Level FlightAware ADS-B
Wed 09:32:48 PM 44.8690 -64.3220 237° Southwest 447 514 36,000  Level FlightAware ADS-B
Wed 09:33:28 PM 44.8220 -64.4220 236° Southwest 447 514 36,000  Level FlightAware ADS-B
Wed 09:34:08 PM 44.7800 -64.5170 238° Southwest 446 513 36,000 628 Level FlightAware ADS-B
Wed 09:34:54 PM 44.7250 -64.6290 235° Southwest 443 510 36,900 1,103 Climbing FlightAware ADS-B
Wed 09:35:35 PM 44.6800 -64.7260 237° Southwest 443 510 37,600 776 Climbing FlightAware ADS-B
Wed 09:36:19 PM 44.6280 -64.8350 236° Southwest 445 512 38,000 289 Climbing FlightAware ADS-B
Wed 09:36:58 PM 44.5860 -64.9250 237° Southwest 446 513 38,000  Level FlightAware ADS-B
Wed 09:37:44 PM 44.5320 -65.0380 236° Southwest 444 511 38,000  Level FlightAware ADS-B
Wed 09:38:24 PM 44.4870 -65.1320 236° Southwest 441 507 38,000  Level FlightAware ADS-B
Wed 09:39:08 PM 44.4370 -65.2370 236° Southwest 439 505 38,000  Level FlightAware ADS-B
Wed 09:39:48 PM 44.3910 -65.3310 236° Southwest 437 503 38,000  Level FlightAware ADS-B
Wed 09:40:28 PM 44.3470 -65.4240 237° Southwest 436 502 38,000  Level FlightAware ADS-B
Wed 09:41:08 PM 44.3020 -65.5160 236° Southwest 436 502 38,000  Level FlightAware ADS-B
Wed 09:41:52 PM 44.2520 -65.6200 236° Southwest 435 501 38,000  Level FlightAware ADS-B
Wed 09:42:34 PM 44.2050 -65.7170 236° Southwest 436 502 38,000  Level FlightAware ADS-B
Wed 09:43:18 PM 44.1550 -65.8180 235° Southwest 436 502 38,000  Level FlightAware ADS-B
Wed 09:43:59 PM 44.1070 -65.9160 236° Southwest 437 503 38,000  Level FlightAware ADS-B
Wed 09:44:35 PM 44.0670 -65.9970 236° Southwest 439 505 38,000  Level FlightAware ADS-B
Wed 09:45:22 PM 44.0130 -66.1060 235° Southwest 437 503 38,000  Level FlightAware ADS-B
Wed 09:46:07 PM 43.9610 -66.2120 236° Southwest 439 505 38,000  Level FlightAware ADS-B
Wed 09:46:47 PM 43.9140 -66.3070 236° Southwest 441 507 38,000  Level FlightAware ADS-B
Wed 09:47:32 PM 43.8620 -66.4120 236° Southwest 442 509 38,000  Level FlightAware ADS-B
Wed 09:48:07 PM 43.8200 -66.4940 235° Southwest 448 516 38,000  Level FlightAware ADS-B
Wed 09:48:52 PM 43.7680 -66.5990 236° Southwest 449 517 38,000  Level FlightAware ADS-B
Wed 09:49:32 PM 43.7190 -66.6950 235° Southwest 450 518 38,000  Level FlightAware ADS-B
Wed 09:50:17 PM 43.6660 -66.8000 235° Southwest 450 518 38,000  Level FlightAware ADS-B
Wed 09:50:57 PM 43.6200 -66.8920 235° Southwest 449 517 38,000  Level FlightAware ADS-B
Wed 09:51:32 PM 43.5780 -66.9770 236° Southwest 443 510 38,000 -79 Level FlightAware ADS-B
Wed 09:52:13 PM 43.5430 -67.0780 244° Southwest 442 509 37,900 -706 Descending FlightAware ADS-B
Wed 09:52:57 PM 43.5090 -67.1970 249° West 443 510 37,000 -1,063 Descending FlightAware ADS-B
Wed 09:53:32 PM 43.4840 -67.2880 249° West 438 504 36,500 -750 Descending FlightAware ADS-B
Wed 09:54:17 PM 43.4520 -67.4060 250° West 437 503 36,000 -370 Descending FlightAware ADS-B
Wed 09:54:53 PM 43.4420 -67.5020 262° West 436 502 36,000  Level FlightAware ADS-B
Wed 09:55:33 PM 43.4420 -67.6170 270° West 434 499 36,000  Level FlightAware ADS-B
Wed 09:56:18 PM 43.4420 -67.7390 270° West 431 496 36,000  Level FlightAware ADS-B
Wed 09:57:14 PM 43.4420 -67.8770 270° West 431 496 36,000  Level FlightAware ADS-B
Wed 09:58:14 PM 43.4430 -68.0350 271° West 431 496 36,000  Level FlightAware ADS-B
Wed 09:58:50 PM 43.4430 -68.1190 270° West 431 496 36,000  Level FlightAware ADS-B
Wed 09:59:38 PM 43.4430 -68.2310 270° West 431 496 36,000  Level FlightAware ADS-B
Wed 10:01:10 PM 43.4430 -68.4460 270° West 431 496 36,000  Level FlightAware ADS-B
Wed 10:01:47 PM 43.4430 -68.5320 270° West 431 496 36,000  Level FlightAware ADS-B
Wed 10:02:35 PM 43.4430 -68.6440 270° West 431 496 36,000  Level FlightAware ADS-B
Wed 10:03:11 PM 43.4430 -68.7280 270° West 431 496 36,000  Level FlightAware ADS-B
Wed 10:03:57 PM 43.4400 -68.9990 269° West 433 498 36,000  Level FlightAware ADS-B
Wed 10:04:55 PM 43.4390 -69.1380 269° West 433 498 36,000  Level FlightAware ADS-B
Wed 10:05:33 PM 43.4380 -69.2590 269° West 433 498 36,000  Level FlightAware ADS-B
Wed 10:06:43 PM 43.4360 -69.4500 269° West 36,000  Level FlightAware ADS-B
Wed 10:07:30 PM 43.4350 -69.5770 269° West 434 499 36,000  Level FlightAware ADS-B
Wed 10:08:14 PM 43.4330 -69.7000 269° West 434 499 36,000  Level FlightAware ADS-B
Wed 10:09:10 PM 43.4310 -69.8500 269° West 435 501 36,000  Level FlightAware ADS-B
Wed 10:09:54 PM 43.4290 -69.9740 269° West 435 501 36,000  Level FlightAware ADS-B
Wed 10:10:37 PM 43.4270 -70.0990 269° West 434 499 36,000  Level FlightAware ADS-B
Wed 10:11:17 PM 43.4260 -70.2080 269° West 435 501 36,000  Level FlightAware ADS-B
Wed 10:11:55 PM 43.4240 -70.3090 268° West 436 502 36,000  Level FlightAware ADS-B
Wed 10:12:43 PM 43.4210 -70.4450 268° West 438 504 36,000  Level FlightAware ADS-B
Wed 10:13:23 PM 43.4190 -70.5570 269° West 438 504 36,000  Level FlightAware ADS-B
Wed 10:14:07 PM 43.4160 -70.6800 268° West 439 505 36,000  Level FlightAware ADS-B
Wed 10:14:47 PM 43.4140 -70.7920 269° West 438 504 36,000  Level FlightAware ADS-B
Wed 10:15:31 PM 43.4110 -70.9120 268° West 437 503 36,000  Level FlightAware ADS-B
Wed 10:16:09 PM 43.4080 -71.0190 268° West 437 503 36,000  Level FlightAware ADS-B
Wed 10:16:55 PM 43.4050 -71.1470 268° West 436 502 36,000  Level FlightAware ADS-B
Wed 10:17:36 PM 43.4020 -71.2560 268° West 434 499 36,000  Level FlightAware ADS-B
Wed 10:18:19 PM 43.3990 -71.3770 268° West 433 498 36,000  Level FlightAware ADS-B
Wed 10:18:59 PM 43.3960 -71.4870 268° West 431 496 36,000  Level FlightAware ADS-B
Wed 10:19:43 PM 43.3920 -71.6080 267° West 429 494 36,000  Level FlightAware ADS-B
Wed 10:20:23 PM 43.3890 -71.7140 268° West 428 493 36,000  Level FlightAware ADS-B
Wed 10:21:07 PM 43.3850 -71.8330 267° West 426 490 36,000  Level FlightAware ADS-B
Wed 10:21:47 PM 43.3810 -71.9410 267° West 423 487 36,000  Level FlightAware ADS-B
Wed 10:22:31 PM 43.3770 -72.0600 267° West 422 486 36,000  Level FlightAware ADS-B
Wed 10:23:07 PM 43.3740 -72.1560 268° West 421 484 36,000  Level FlightAware ADS-B
Wed 10:23:54 PM 43.3700 -72.2790 267° West 421 484 36,000  Level FlightAware ADS-B
Wed 10:24:36 PM 43.3660 -72.3940 267° West 419 482 36,000  Level FlightAware ADS-B
Wed 10:25:16 PM 43.3620 -72.4990 267° West 421 484 36,000  Level FlightAware ADS-B
Wed 10:26:02 PM 43.3570 -72.6200 267° West 417 480 36,000  Level FlightAware ADS-B
Wed 10:26:34 PM 43.3540 -72.7050 267° West 417 480 36,000  Level FlightAware ADS-B
Wed 10:27:18 PM 43.3490 -72.8210 267° West 417 480 36,000  Level FlightAware ADS-B
Wed 10:27:58 PM 43.3440 -72.9280 266° West 419 482 36,000  Level FlightAware ADS-B
Wed 10:28:34 PM 43.3410 -73.0180 267° West 418 481 36,000  Level FlightAware ADS-B
Wed 10:29:16 PM 43.3360 -73.1290 266° West 414 476 36,000  Level FlightAware ADS-B
Wed 10:29:57 PM 43.3300 -73.2340 266° West 414 476 36,000  Level FlightAware ADS-B
Wed 10:30:36 PM 43.3170 -73.3340 260° West 412 474 36,000  Level FlightAware ADS-B
Wed 10:31:17 PM 43.2990 -73.4450 257° West 412 474 36,000  Level FlightAware ADS-B
Wed 10:32:05 PM 43.2780 -73.5650 257° West 410 472 36,000  Level FlightAware ADS-B
Wed 10:32:45 PM 43.2610 -73.6660 257° West 409 471 36,000  Level FlightAware ADS-B
Wed 10:33:21 PM 43.2450 -73.7600 257° West 408 470 36,000  Level FlightAware ADS-B
Wed 10:34:01 PM 43.2280 -73.8580 257° West 409 471 36,000  Level FlightAware ADS-B
Wed 10:34:46 PM 43.2090 -73.9710 257° West 410 472 36,000  Level FlightAware ADS-B
Wed 10:35:35 PM 43.1880 -74.0900 256° West 409 471 36,000  Level FlightAware ADS-B
Wed 10:36:15 PM 43.1700 -74.1940 257° West 408 470 36,000  Level FlightAware ADS-B
Wed 10:36:57 PM 43.1510 -74.3020 256° West 409 471 36,000  Level FlightAware ADS-B
Wed 10:37:41 PM 43.1310 -74.4140 256° West 408 470 36,000  Level FlightAware ADS-B
Wed 10:38:21 PM 43.1140 -74.5150 257° West 408 470 36,000  Level FlightAware ADS-B
Wed 10:39:05 PM 43.0940 -74.6220 256° West 406 467 36,000  Level FlightAware ADS-B
Wed 10:39:46 PM 43.0760 -74.7220 256° West 405 466 36,000  Level FlightAware ADS-B
Wed 10:40:21 PM 43.0600 -74.8120 256° West 405 466 36,000  Level FlightAware ADS-B
Wed 10:41:01 PM 43.0420 -74.9110 256° West 405 466 36,000  Level FlightAware ADS-B
Wed 10:41:47 PM 43.0210 -75.0250 256° West 404 465 36,000  Level FlightAware ADS-B
Wed 10:42:19 PM 43.0070 -75.1050 257° West 405 466 36,000  Level FlightAware ADS-B
Wed 10:43:01 PM 42.9880 -75.2090 256° West 405 466 36,000  Level FlightAware ADS-B
Wed 10:43:46 PM 42.9680 -75.3160 256° West 404 465 36,000  Level FlightAware ADS-B
Wed 10:44:17 PM 42.9530 -75.3960 256° West 405 466 36,000  Level FlightAware ADS-B
Wed 10:45:01 PM 42.9330 -75.5040 256° West 405 466 36,000  Level FlightAware ADS-B
Wed 10:45:41 PM 42.9140 -75.6050 256° West 406 467 36,000  Level FlightAware ADS-B
Wed 10:46:25 PM 42.8930 -75.7120 255° West 407 468 36,000  Level FlightAware ADS-B
Wed 10:47:07 PM 42.8730 -75.8180 256° West 407 468 36,000  Level FlightAware ADS-B
Wed 10:47:51 PM 42.8530 -75.9260 256° West 406 467 36,000  Level FlightAware ADS-B
Wed 10:48:31 PM 42.8340 -76.0250 255° West 406 467 36,000  Level FlightAware ADS-B
Wed 10:49:11 PM 42.8140 -76.1240 255° West 404 465 36,000  Level FlightAware ADS-B
Wed 10:49:47 PM 42.7970 -76.2130 255° West 403 464 36,000  Level FlightAware ADS-B
Wed 10:50:30 PM 42.7770 -76.3150 255° West 401 461 36,000  Level FlightAware ADS-B
Wed 10:51:10 PM 42.7580 -76.4140 255° West 400 460 36,000  Level FlightAware ADS-B
Wed 10:51:46 PM 42.7410 -76.4990 255° West 398 458 36,000  Level FlightAware ADS-B
Wed 10:52:30 PM 42.7190 -76.6090 255° West 396 456 36,000  Level FlightAware ADS-B
Wed 10:53:10 PM 42.7010 -76.7020 255° West 395 455 36,000  Level FlightAware ADS-B
Wed 10:53:54 PM 42.6800 -76.8070 255° West 394 453 36,000  Level FlightAware ADS-B
Wed 10:54:34 PM 42.6600 -76.9040 254° West 392 451 36,000  Level FlightAware ADS-B
Wed 10:55:16 PM 42.6410 -77.0020 255° West 392 451 36,000  Level FlightAware ADS-B
Wed 10:55:58 PM 42.6200 -77.1020 254° West 390 449 36,000  Level FlightAware ADS-B
Wed 10:56:34 PM 42.6030 -77.1850 254° West 390 449 36,000  Level FlightAware ADS-B
Wed 10:57:14 PM 42.5840 -77.2800 255° West 389 448 36,000  Level FlightAware ADS-B
Wed 10:57:58 PM 42.5630 -77.3820 254° West 388 447 36,000  Level FlightAware ADS-B
Wed 10:58:38 PM 42.5440 -77.4750 255° West 388 447 36,000  Level FlightAware ADS-B
Wed 10:59:23 PM 42.5220 -77.5800 254° West 387 445 36,000  Level FlightAware ADS-B
Wed 11:00:00 PM 42.5030 -77.6700 254° West 387 445 36,000  Level FlightAware ADS-B
Wed 11:00:44 PM 42.4820 -77.7700 254° West 389 448 36,000  Level FlightAware ADS-B
Wed 11:01:22 PM 42.4640 -77.8580 255° West 391 450 36,000  Level FlightAware ADS-B
Wed 11:02:02 PM 42.4430 -77.9550 254° West 393 452 36,000  Level FlightAware ADS-B
Wed 11:02:44 PM 42.4220 -78.0540 254° West 393 452 36,000  Level FlightAware ADS-B
Wed 11:03:16 PM 42.4060 -78.1290 254° West 393 452 36,000  Level FlightAware ADS-B
Wed 11:04:00 PM 42.3830 -78.2340 254° West 395 455 36,000  Level FlightAware ADS-B
Wed 11:04:44 PM 42.3610 -78.3360 254° West 397 457 36,000  Level FlightAware ADS-B
Wed 11:05:24 PM 42.3400 -78.4330 254° West 397 457 36,000  Level FlightAware ADS-B
Wed 11:06:03 PM 42.3210 -78.5230 254° West 399 459 36,000  Level FlightAware ADS-B
Wed 11:06:50 PM 42.2960 -78.6360 253° West 400 460 36,000  Level FlightAware ADS-B
Wed 11:07:30 PM 42.2750 -78.7330 254° West 400 460 36,000  Level FlightAware ADS-B
Wed 11:08:10 PM 42.2540 -78.8290 254° West 400 460 36,000  Level FlightAware ADS-B
Wed 11:08:49 PM 42.2340 -78.9200 253° West 400 460 36,000  Level FlightAware ADS-B
Wed 11:09:30 PM 42.2110 -79.0190 253° West 400 460 36,000  Level FlightAware ADS-B
Wed 11:10:10 PM 42.1880 -79.1130 252° West 399 459 36,000  Level FlightAware ADS-B
Wed 11:10:46 PM 42.1520 -79.1880 237° Southwest 397 457 36,000  Level FlightAware ADS-B
Wed 11:11:30 PM 42.1050 -79.2730 233° Southwest 397 457 36,000  Level FlightAware ADS-B
Wed 11:12:08 PM 42.0610 -79.3510 233° Southwest 396 456 36,000  Level FlightAware ADS-B
Wed 11:12:54 PM 42.0120 -79.4380 233° Southwest 396 456 36,000  Level FlightAware ADS-B
Wed 11:13:38 PM 41.9620 -79.5270 233° Southwest 395 455 36,000  Level FlightAware ADS-B
Wed 11:14:20 PM 41.9160 -79.6080 233° Southwest 395 455 36,000  Level FlightAware ADS-B
Wed 11:15:00 PM 41.8730 -79.6850 233° Southwest 395 455 36,000  Level FlightAware ADS-B
Wed 11:15:35 PM 41.8340 -79.7540 233° Southwest 394 453 36,000  Level FlightAware ADS-B
Wed 11:16:15 PM 41.7890 -79.8330 233° Southwest 394 453 36,000  Level FlightAware ADS-B
Wed 11:17:00 PM 41.7400 -79.9190 233° Southwest 394 453 36,000  Level FlightAware ADS-B
Wed 11:17:40 PM 41.6960 -79.9960 233° Southwest 393 452 36,000  Level FlightAware ADS-B
Wed 11:18:23 PM 41.6480 -80.0800 233° Southwest 395 455 36,000  Level FlightAware ADS-B
Wed 11:19:05 PM 41.6010 -80.1610 232° Southwest 394 453 36,000  Level FlightAware ADS-B
Wed 11:19:48 PM 41.5540 -80.2440 233° Southwest 394 453 36,000  Level FlightAware ADS-B
Wed 11:20:36 PM 41.5030 -80.3330 233° Southwest 396 456 36,000  Level FlightAware ADS-B
Wed 11:21:25 PM 41.4470 -80.4290 232° Southwest 396 456 36,000  Level FlightAware ADS-B
Wed 11:22:06 PM 41.4000 -80.5100 232° Southwest 396 456 36,000  Level FlightAware ADS-B
Wed 11:22:49 PM 41.3520 -80.5930 232° Southwest 396 456 36,000  Level FlightAware ADS-B
Wed 11:23:16 PM 41.3210 -80.6450 232° Southwest 397 457 36,000  Level FlightAware ADS-B
Wed 11:24:02 PM 41.2700 -80.7340 233° Southwest 397 457 36,000  Level FlightAware ADS-B
Wed 11:24:42 PM 41.2250 -80.8090 231° Southwest 396 456 36,000  Level FlightAware ADS-B
Wed 11:25:26 PM 41.1750 -80.8960 233° Southwest 396 456 36,000  Level FlightAware ADS-B
Wed 11:26:04 PM 41.1320 -80.9680 232° Southwest 396 456 36,000  Level FlightAware ADS-B
Wed 11:26:49 PM 41.0830 -81.0520 232° Southwest 396 456 36,000  Level FlightAware ADS-B
Wed 11:27:30 PM 41.0350 -81.1320 232° Southwest 396 456 36,000  Level FlightAware ADS-B
Wed 11:28:06 PM 40.9940 -81.2010 232° Southwest 396 456 36,000  Level FlightAware ADS-B
Wed 11:28:55 PM 40.9400 -81.2920 232° Southwest 396 456 36,000  Level FlightAware ADS-B
Wed 11:29:34 PM 40.8950 -81.3680 232° Southwest 396 456 36,000  Level FlightAware ADS-B
Wed 11:30:18 PM 40.8440 -81.4520 231° Southwest 396 456 36,000  Level FlightAware ADS-B
Wed 11:30:59 PM 40.7980 -81.5290 232° Southwest 397 457 36,000  Level FlightAware ADS-B
Wed 11:31:44 PM 40.7470 -81.6140 232° Southwest 397 457 36,000  Level FlightAware ADS-B
Wed 11:32:24 PM 40.7010 -81.6910 232° Southwest 399 459 36,000  Level FlightAware ADS-B
Wed 11:33:07 PM 40.6520 -81.7710 231° Southwest 400 460 36,000  Level FlightAware ADS-B
Wed 11:33:47 PM 40.6060 -81.8480 232° Southwest 401 461 36,000  Level FlightAware ADS-B
Wed 11:34:31 PM 40.5540 -81.9330 231° Southwest 401 461 36,000  Level FlightAware ADS-B
Wed 11:35:12 PM 40.5090 -82.0070 231° Southwest 402 463 36,000  Level FlightAware ADS-B
Wed 11:35:47 PM 40.4660 -82.0770 231° Southwest 403 464 36,000 -160 Level FlightAware ADS-B
Wed 11:36:27 PM 40.4190 -82.1540 231° Southwest 404 465 35,800 -706 Descending FlightAware ADS-B
Wed 11:37:12 PM 40.3670 -82.2390 231° Southwest 409 471 35,000 -571 Descending FlightAware ADS-B
Wed 11:37:51 PM 40.3200 -82.3160 231° Southwest 411 473 35,000  Level FlightAware ADS-B
Wed 11:38:36 PM 40.2670 -82.4020 231° Southwest 412 474 35,000  Level FlightAware ADS-B
Wed 11:39:16 PM 40.2190 -82.4790 231° Southwest 411 473 35,000  Level FlightAware ADS-B
Wed 11:40:00 PM 40.1650 -82.5650 231° Southwest 411 473 35,000  Level FlightAware ADS-B
Wed 11:40:36 PM 40.1250 -82.6370 234° Southwest 410 472 35,000  Level FlightAware ADS-B
Wed 11:41:15 PM 40.0850 -82.7160 237° Southwest 410 472 35,000 -217 Level FlightAware ADS-B
Wed 11:41:59 PM 40.0380 -82.8060 236° Southwest 410 472 34,700 -779 Descending FlightAware ADS-B
Wed 11:42:32 PM 40.0020 -82.8740 235° Southwest 412 474 34,000 -1,200 Descending FlightAware ADS-B
Wed 11:43:14 PM 39.9570 -82.9610 236° Southwest 414 476 33,200 -1,157 Descending FlightAware ADS-B
Wed 11:43:55 PM 39.9120 -83.0450 235° Southwest 414 476 32,400 -1,098 Descending FlightAware ADS-B
Wed 11:44:36 PM 39.8680 -83.1280 235° Southwest 414 476 31,700 -698 Descending FlightAware ADS-B
Wed 11:45:21 PM 39.8230 -83.2130 235° Southwest 414 476 31,400 -1,111 Descending FlightAware ADS-B
Wed 11:45:57 PM 39.7820 -83.2910 236° Southwest 414 476 30,200 -672 Descending FlightAware ADS-B
Wed 11:47:26 PM 39.6930 -83.4580 235° Southwest 413 475 30,000 -72 Descending FlightAware ADS-B
Wed 11:48:44 PM 39.5980 -83.6350 235° Southwest 418 481 30,000  Level FlightAware ADS-B
Wed 11:49:22 PM 39.5630 -83.7020 236° Southwest 418 481 30,000  Level FlightAware ADS-B
Wed 11:50:10 PM 39.5170 -83.7860 235° Southwest 418 481 30,000  Level FlightAware ADS-B
Wed 11:50:46 PM 39.4830 -83.8480 235° Southwest 418 481 30,000  Level FlightAware ADS-B
Wed 11:51:34 PM 39.4380 -83.9320 235° Southwest 418 481 30,000  Level FlightAware ADS-B
Wed 11:52:10 PM 39.4040 -83.9950 235° Southwest 418 481 30,000  Level FlightAware ADS-B
Wed 11:52:47 PM 39.3690 -84.0590 235° Southwest 418 481 30,000  Level FlightAware ADS-B
Wed 11:53:23 PM 39.3350 -84.1220 235° Southwest 418 481 30,000  Level FlightAware ADS-B
Wed 11:54:11 PM 39.2900 -84.2060 235° Southwest 418 481 30,000  Level FlightAware ADS-B
Wed 11:54:47 PM 39.2560 -84.2680 235° Southwest 418 481 30,000  Level FlightAware ADS-B
Wed 11:55:23 PM 39.2220 -84.3310 235° Southwest 418 481 30,000 -4,950 Level FlightAware ADS-B
Wed 11:56:07 PM 39.1350 -84.4880 234° Southwest 372 428 23,400 -4,714 Descending FlightAware ADS-B
Wed 11:56:47 PM 39.1010 -84.5490 234° Southwest 372 428 23,400 -1,610 Level FlightAware ADS-B
Wed 11:57:29 PM 39.0560 -84.6300 234° Southwest 364 419 21,200 -1,929 Descending FlightAware ADS-B
Wed 11:58:39 PM 38.9830 -84.7410 230° Southwest 369 425 19,800 -792 Descending FlightAware ADS-B
Wed 11:59:15 PM 38.9460 -84.7890 225° Southwest 369 425 19,800  Level FlightAware ADS-B
Thu 12:00:04 AM 38.8960 -84.8530 225° Southwest 369 425 19,800  Level FlightAware ADS-B
Thu 12:02:00 AM 38.6967 -84.9988 214° Southwest  Level FlightAware Approximate
Thu 12:03:00 AM 38.5974 -85.0859 218° Southwest  Level FlightAware Approximate
Thu 12:04:00 AM 38.5027 -85.1807 218° Southwest  Level FlightAware Approximate
Thu 12:05:00 AM 38.4080 -85.2754 218° Southwest  Level FlightAware Approximate
Thu 12:06:00 AM 38.3133 -85.3700 218° Southwest  Level FlightAware Approximate
Thu 12:07:00 AM 38.2174 -85.4500 180° South  Level FlightAware Approximate
Thu 12:08:00 AM 38.1245 -85.5422 218° Southwest  Level FlightAware Approximate
Thu 12:09:00 AM 38.1353 -85.6706 302° West  Level FlightAware Approximate
Thu 12:10:00 AM 38.1667 -85.7333 302° West  Level FlightAware Approximate
Thu 12:11:00 AM 38.1741 -85.7365 302° West  Level Estimated
Thu 12:12:00 AM 38.1741 -85.7365 302° West  Level Estimated
Thu 12:13:00 AM 38.1741 -85.7365 302° West  Level Estimated
Thu 12:14:00 AM 38.1741 -85.7365 302° West  Level Estimated
Thu 12:15:00 AM 38.1741 -85.7365 302° West  Level Estimated
Thu 12:16:00 AM 38.1741 -85.7365 302° West  Level Estimated
Thu 12:17:00 AM 38.1741 -85.7365 302° West  Level Estimated
Thu 12:18:00 AM 38.1741 -85.7365 302° West  Level Estimated
Thu 12:19:00 AM 38.1741 -85.7365 302° West  Level Estimated
Thu 12:20:00 AM 38.1741 -85.7365 302° West  Level Estimated
Thu 12:21:00 AM 38.1741 -85.7365 302° West  Level Estimated
Thu 12:22:00 AM 38.1741 -85.7365 302° West  Level Estimated
Thu 12:23:00 AM 38.1741 -85.7365 302° West  Level Estimated
Thu 12:24:00 AM 38.1741 -85.7365 302° West  Level Estimated
Thu 12:25:00 AM 38.1741 -85.7365 302° West  Level Estimated
Thu 12:26:00 AM 38.1741 -85.7365 302° West  Level Estimated
Thu 12:27:00 AM 38.1741 -85.7365 302° West  Level Estimated
Thu 12:28:00 AM 38.1741 -85.7365 302° West  Level Estimated

Login

Don't have an account? Register now (free) for customized features, flight alerts, and more!